createdAt,value
2023-03-29T00:04:04.501Z,-0.80
2023-03-29T00:09:06.932Z,-0.80
2023-03-29T00:14:08.846Z,-0.90
2023-03-29T00:19:10.641Z,-0.90
2023-03-29T00:24:12.456Z,-0.90
2023-03-29T00:29:14.265Z,-0.90
2023-03-29T00:34:16.220Z,-0.90
2023-03-29T00:39:18.347Z,-0.80
2023-03-29T00:44:57.895Z,-0.80
2023-03-29T00:50:06.085Z,-0.90
2023-03-29T00:55:11.792Z,-0.90
2023-03-29T01:00:20.914Z,-0.80
2023-03-29T01:05:32.389Z,-0.70
2023-03-29T01:11:04.044Z,-0.70
2023-03-29T01:16:08.087Z,-0.70
2023-03-29T01:21:14.805Z,-0.90
2023-03-29T01:26:27.109Z,-1.20
2023-03-29T01:31:31.475Z,-1.30
2023-03-29T01:36:41.558Z,-1.30
2023-03-29T01:41:52.001Z,-1.20
2023-03-29T01:47:23.601Z,-1.10
2023-03-29T01:52:30.514Z,-1.10
2023-03-29T01:57:33.128Z,-1.10
2023-03-29T02:02:35.125Z,-1.10
2023-03-29T02:07:38.205Z,-1.20
2023-03-29T02:12:40.097Z,-1.30
2023-03-29T02:17:43.635Z,-1.40
2023-03-29T02:22:54.343Z,-1.50
2023-03-29T02:27:56.523Z,-1.40
2023-03-29T02:33:06.671Z,-1.30
2023-03-29T02:38:11.354Z,-1.30
2023-03-29T02:43:14.322Z,-1.30
2023-03-29T02:48:18.584Z,-1.30
2023-03-29T02:53:24.114Z,-1.20
2023-03-29T02:58:26.694Z,-1.20
2023-03-29T03:03:29.231Z,-1.30
2023-03-29T03:08:32.137Z,-1.40
2023-03-29T03:13:34.253Z,-1.50
2023-03-29T03:18:36.084Z,-1.60
2023-03-29T03:23:37.897Z,-1.60
2023-03-29T03:28:39.715Z,-1.60
2023-03-29T03:33:41.744Z,-1.60
2023-03-29T03:38:44.084Z,-1.60
2023-03-29T03:43:48.898Z,-1.60
2023-03-29T03:48:50.709Z,-1.60
2023-03-29T03:53:52.869Z,-1.60
2023-03-29T03:58:54.670Z,-1.60
2023-03-29T04:03:56.519Z,-1.60
2023-03-29T04:08:59.686Z,-1.60
2023-03-29T04:14:02.632Z,-1.60
2023-03-29T04:19:04.409Z,-1.60
2023-03-29T04:24:06.632Z,-1.70
2023-03-29T04:29:09.055Z,-1.70
2023-03-29T04:34:10.943Z,-1.70
2023-03-29T04:39:12.730Z,-1.70
2023-03-29T04:44:14.516Z,-1.60
2023-03-29T04:55:46.730Z,-1.60
2023-03-29T05:00:49.435Z,-1.50
2023-03-29T05:05:51.270Z,-1.50
2023-03-29T05:10:53.104Z,-1.40
2023-03-29T05:15:57.179Z,-1.40
2023-03-29T05:21:00.225Z,-1.30
2023-03-29T05:26:04.559Z,-1.20
2023-03-29T05:31:06.713Z,-1.20
2023-03-29T05:36:13.466Z,-1.10
2023-03-29T05:41:16.020Z,-1.10
2023-03-29T05:46:18.257Z,-1.00
2023-03-29T05:51:24.159Z,-0.90
2023-03-29T05:56:26.883Z,-0.70
2023-03-29T06:01:28.737Z,-0.50
2023-03-29T06:06:30.559Z,-0.30
2023-03-29T06:11:32.861Z,-0.10
2023-03-29T06:16:35.009Z,0.00
2023-03-29T06:21:36.918Z,0.10
2023-03-29T06:26:38.723Z,0.40
2023-03-29T06:31:40.878Z,1.00
2023-03-29T06:36:42.785Z,1.40
2023-03-29T06:41:44.592Z,1.90
2023-03-29T06:46:46.500Z,2.50
2023-03-29T06:51:48.757Z,2.70
2023-03-29T06:56:50.779Z,2.60
2023-03-29T07:01:54.885Z,2.50
2023-03-29T07:07:03.474Z,2.60
2023-03-29T07:12:05.743Z,2.70
2023-03-29T07:17:07.819Z,2.70
2023-03-29T07:22:09.921Z,2.90
2023-03-29T07:27:12.814Z,3.00
2023-03-29T07:32:14.732Z,3.30
2023-03-29T07:37:17.632Z,3.60
2023-03-29T07:42:21.381Z,3.80
2023-03-29T07:47:23.558Z,4.30
2023-03-29T07:52:27.989Z,4.60
2023-03-29T07:57:30.387Z,4.70
2023-03-29T08:02:32.903Z,4.80
2023-03-29T08:07:34.720Z,5.20
2023-03-29T08:12:37.192Z,5.70
2023-03-29T08:17:39.380Z,5.90
2023-03-29T08:22:41.169Z,6.10
2023-03-29T08:27:43.311Z,6.10
2023-03-29T08:32:46.315Z,6.10
2023-03-29T08:37:51.327Z,6.40
2023-03-29T08:42:58.093Z,6.50
2023-03-29T08:48:16.323Z,6.70
2023-03-29T08:53:52.535Z,7.00
2023-03-29T08:58:58.384Z,7.20
2023-03-29T09:04:21.765Z,7.30
2023-03-29T09:09:28.892Z,7.50
2023-03-29T09:14:51.993Z,7.50
2023-03-29T09:19:59.938Z,7.60
2023-03-29T09:25:14.138Z,7.60
2023-03-29T09:30:26.244Z,7.60
2023-03-29T09:35:35.970Z,7.70
2023-03-29T09:41:05.060Z,7.60
2023-03-29T09:46:16.020Z,7.70
2023-03-29T09:51:20.131Z,7.70
2023-03-29T09:56:22.080Z,7.70
2023-03-29T10:01:23.936Z,7.70
2023-03-29T10:06:26.894Z,7.90
2023-03-29T10:11:30.966Z,8.20
2023-03-29T10:16:42.170Z,8.60
2023-03-29T10:21:48.092Z,8.80
2023-03-29T10:32:23.085Z,8.60
2023-03-29T10:37:25.107Z,8.40
2023-03-29T10:42:28.637Z,8.50
2023-03-29T10:47:34.404Z,8.60
2023-03-29T10:52:36.309Z,8.70
2023-03-29T10:58:03.068Z,8.80
2023-03-29T11:03:14.336Z,8.70
2023-03-29T11:08:31.731Z,8.60
2023-03-29T11:13:54.170Z,8.70
2023-03-29T11:19:20.307Z,8.60
2023-03-29T11:24:25.033Z,8.70
2023-03-29T11:29:39.991Z,8.70
2023-03-29T11:35:27.110Z,8.70
2023-03-29T11:40:41.514Z,8.80
2023-03-29T11:46:01.156Z,8.90
2023-03-29T11:51:13.600Z,9.20
2023-03-29T11:56:23.758Z,9.40
2023-03-29T12:01:33.642Z,9.50
2023-03-29T12:06:42.389Z,9.60
2023-03-29T12:11:50.370Z,9.70
2023-03-29T12:17:01.480Z,9.60
2023-03-29T12:22:03.547Z,9.40
2023-03-29T12:27:29.538Z,9.40
2023-03-29T12:32:35.856Z,9.30
2023-03-29T12:37:47.014Z,9.20
2023-03-29T12:42:52.688Z,9.10
2023-03-29T12:47:55.156Z,9.00
2023-03-29T12:53:06.225Z,8.80
2023-03-29T12:58:24.225Z,8.60
2023-03-29T13:03:52.132Z,8.30
2023-03-29T13:09:01.484Z,8.20
2023-03-29T13:14:11.606Z,8.20
2023-03-29T13:19:34.660Z,8.30
2023-03-29T13:24:52.562Z,8.30
2023-03-29T13:30:03.306Z,8.40
2023-03-29T13:35:29.505Z,8.50
2023-03-29T13:40:42.198Z,8.40
2023-03-29T13:45:44.401Z,8.50
2023-03-29T13:50:58.253Z,8.50
2023-03-29T13:57:09.291Z,8.50
2023-03-29T14:02:27.797Z,8.50
2023-03-29T14:07:30.496Z,8.60
2023-03-29T14:12:41.667Z,8.60
2023-03-29T14:17:43.956Z,8.50
2023-03-29T14:22:46.495Z,8.40
2023-03-29T14:27:49.045Z,8.40
2023-03-29T14:32:52.335Z,8.40
2023-03-29T14:37:54.294Z,8.40
2023-03-29T14:42:56.336Z,8.30
2023-03-29T14:47:58.946Z,8.30
2023-03-29T14:53:01.713Z,8.20
2023-03-29T14:58:04.308Z,8.30
2023-03-29T15:03:13.764Z,8.40
2023-03-29T15:08:20.000Z,8.40
2023-03-29T15:13:24.564Z,8.40
2023-03-29T15:18:36.209Z,8.40
2023-03-29T15:23:41.705Z,8.30
2023-03-29T15:28:49.276Z,8.30
2023-03-29T15:34:02.931Z,8.30
2023-03-29T15:39:04.804Z,8.40
2023-03-29T15:44:07.174Z,8.20
2023-03-29T15:49:12.782Z,8.20
2023-03-29T15:54:14.564Z,8.10
2023-03-29T15:59:18.008Z,8.00
2023-03-29T16:04:21.171Z,7.90
2023-03-29T16:09:23.852Z,7.80
2023-03-29T16:14:31.356Z,7.80
2023-03-29T16:19:33.845Z,7.80
2023-03-29T16:24:36.446Z,7.80
2023-03-29T16:29:38.338Z,7.80
2023-03-29T16:34:41.428Z,7.80
2023-03-29T16:39:43.533Z,7.80
2023-03-29T16:44:45.588Z,7.70
2023-03-29T16:49:48.657Z,7.70
2023-03-29T16:54:50.837Z,7.60
2023-03-29T16:59:52.794Z,7.60
2023-03-29T17:04:54.818Z,7.60
2023-03-29T17:09:56.942Z,7.60
2023-03-29T17:14:59.151Z,7.50
2023-03-29T17:20:01.031Z,7.50
2023-03-29T17:25:06.236Z,7.50
2023-03-29T17:30:08.828Z,7.50
2023-03-29T17:35:11.116Z,7.40
2023-03-29T17:40:15.751Z,7.40
2023-03-29T17:45:21.905Z,7.40
2023-03-29T17:50:25.137Z,7.30
2023-03-29T17:55:27.461Z,7.30
2023-03-29T18:00:29.407Z,7.30
2023-03-29T18:05:31.374Z,7.30
2023-03-29T18:10:33.428Z,7.20
2023-03-29T18:15:35.612Z,7.20
2023-03-29T18:20:37.413Z,7.10
2023-03-29T18:25:39.270Z,7.10
2023-03-29T18:30:41.207Z,7.10
2023-03-29T18:35:48.484Z,7.10
2023-03-29T18:40:50.745Z,7.00
2023-03-29T18:45:52.656Z,7.00
2023-03-29T18:50:57.834Z,7.00
2023-03-29T18:56:01.082Z,7.00
2023-03-29T19:01:05.154Z,6.90
2023-03-29T19:06:08.502Z,6.80
2023-03-29T19:11:14.173Z,6.80
2023-03-29T19:16:16.471Z,6.80
2023-03-29T19:21:18.382Z,6.70
2023-03-29T19:26:20.280Z,6.70
2023-03-29T19:31:22.606Z,6.60
2023-03-29T19:36:24.506Z,6.60
2023-03-29T19:41:26.783Z,6.60
2023-03-29T19:46:29.226Z,6.50
2023-03-29T19:51:31.474Z,6.40
2023-03-29T19:56:34.834Z,6.40
2023-03-29T20:01:39.519Z,6.30
2023-03-29T20:06:41.654Z,6.20
2023-03-29T20:11:49.711Z,6.10
2023-03-29T20:16:54.143Z,5.90
2023-03-29T20:21:57.587Z,5.80
2023-03-29T20:26:59.669Z,5.70
2023-03-29T20:32:02.666Z,5.60
2023-03-29T20:37:04.648Z,5.50
2023-03-29T20:42:06.794Z,5.50
2023-03-29T20:47:14.128Z,5.40
2023-03-29T20:52:17.221Z,5.30
2023-03-29T20:57:20.875Z,5.30
2023-03-29T21:02:23.302Z,5.30
2023-03-29T21:07:25.179Z,5.30
2023-03-29T21:12:27.428Z,5.40
2023-03-29T21:17:29.602Z,5.40
2023-03-29T21:22:33.064Z,5.50
2023-03-29T21:27:37.182Z,5.50
2023-03-29T21:32:40.474Z,5.50
2023-03-29T21:37:42.401Z,5.50
2023-03-29T21:42:44.427Z,5.50
2023-03-29T21:47:46.320Z,5.50
2023-03-29T21:52:48.686Z,5.50
2023-03-29T21:57:50.681Z,5.50
2023-03-29T22:02:52.609Z,5.50
2023-03-29T22:07:54.537Z,5.40
2023-03-29T22:12:57.100Z,5.30
2023-03-29T22:18:00.305Z,5.30
2023-03-29T22:23:03.192Z,5.20
2023-03-29T22:28:05.045Z,5.20
2023-03-29T22:33:07.122Z,5.20
2023-03-29T22:38:09.007Z,5.10
2023-03-29T22:43:11.047Z,5.20
2023-03-29T22:48:12.932Z,5.20
2023-03-29T22:53:14.911Z,5.30
2023-03-29T22:58:16.792Z,5.30
2023-03-29T23:03:18.838Z,5.30
2023-03-29T23:08:21.521Z,5.30
2023-03-29T23:13:28.815Z,5.30
2023-03-29T23:18:34.910Z,5.30
2023-03-29T23:23:36.999Z,5.30
2023-03-29T23:28:38.909Z,5.30
2023-03-29T23:33:42.754Z,5.30
2023-03-29T23:38:46.272Z,5.30
2023-03-29T23:43:50.176Z,5.30
2023-03-29T23:48:52.330Z,5.30
2023-03-29T23:53:55.364Z,5.20
2023-03-29T23:58:57.257Z,5.20
